sensor_id;sensor_type;location;lat;lon;timestamp;pressure;altitude;pressure_sealevel;temperature;humidity
45793;BME280;31495;42.740;22.908;2023-02-28T00:00:42;93516.56;;;5.26;94.92
45793;BME280;31495;42.740;22.908;2023-02-28T00:01:42;93523.16;;;5.21;94.58
45793;BME280;31495;42.740;22.908;2023-02-28T00:02:43;93526.34;;;5.23;94.43
45793;BME280;31495;42.740;22.908;2023-02-28T00:03:42;93514.38;;;5.15;94.38
45793;BME280;31495;42.740;22.908;2023-02-28T00:04:42;93499.97;;;5.06;94.18
45793;BME280;31495;42.740;22.908;2023-02-28T00:05:42;93534.38;;;5.20;94.07
45793;BME280;31495;42.740;22.908;2023-02-28T00:06:41;93536.78;;;5.21;94.13
45793;BME280;31495;42.740;22.908;2023-02-28T00:07:41;93510.91;;;5.00;94.31
45793;BME280;31495;42.740;22.908;2023-02-28T00:08:41;93540.94;;;5.22;94.61
45793;BME280;31495;42.740;22.908;2023-02-28T00:09:41;93508.16;;;5.01;94.66
45793;BME280;31495;42.740;22.908;2023-02-28T00:10:40;93510.44;;;4.96;94.70
45793;BME280;31495;42.740;22.908;2023-02-28T00:11:40;93530.38;;;5.17;94.03
45793;BME280;31495;42.740;22.908;2023-02-28T00:12:39;93521.28;;;5.06;94.02
45793;BME280;31495;42.740;22.908;2023-02-28T00:13:42;93531.25;;;5.01;94.03
45793;BME280;31495;42.740;22.908;2023-02-28T00:14:41;93520.53;;;4.97;94.51
45793;BME280;31495;42.740;22.908;2023-02-28T00:15:41;93520.38;;;4.99;94.78
45793;BME280;31495;42.740;22.908;2023-02-28T00:16:40;93470.78;;;4.67;94.53
45793;BME280;31495;42.740;22.908;2023-02-28T00:17:39;93539.91;;;5.08;94.61
45793;BME280;31495;42.740;22.908;2023-02-28T00:18:39;93524.38;;;4.93;94.26
45793;BME280;31495;42.740;22.908;2023-02-28T00:19:38;93539.09;;;5.00;94.21
45793;BME280;31495;42.740;22.908;2023-02-28T00:20:37;93521.22;;;4.83;94.12
45793;BME280;31495;42.740;22.908;2023-02-28T00:21:37;93518.00;;;4.89;94.00
45793;BME280;31495;42.740;22.908;2023-02-28T00:22:43;93509.88;;;4.69;93.49
45793;BME280;31495;42.740;22.908;2023-02-28T00:23:43;93518.81;;;4.82;93.36
45793;BME280;31495;42.740;22.908;2023-02-28T00:24:43;93542.00;;;4.96;93.13
45793;BME280;31495;42.740;22.908;2023-02-28T00:25:43;93533.69;;;4.94;92.79
45793;BME280;31495;42.740;22.908;2023-02-28T00:26:43;93503.28;;;4.75;92.19
45793;BME280;31495;42.740;22.908;2023-02-28T00:27:42;93533.06;;;4.92;92.06
45793;BME280;31495;42.740;22.908;2023-02-28T00:28:42;93506.19;;;4.72;92.14
45793;BME280;31495;42.740;22.908;2023-02-28T00:29:41;93522.00;;;4.84;92.22
45793;BME280;31495;42.740;22.908;2023-02-28T00:30:41;93511.28;;;4.80;92.27
45793;BME280;31495;42.740;22.908;2023-02-28T00:31:40;93514.31;;;4.84;92.55
45793;BME280;31495;42.740;22.908;2023-02-28T00:32:40;93541.63;;;5.08;92.16
45793;BME280;31495;42.740;22.908;2023-02-28T00:33:39;93492.06;;;4.76;91.63
45793;BME280;31495;42.740;22.908;2023-02-28T00:34:39;93467.91;;;4.62;91.19
45793;BME280;31495;42.740;22.908;2023-02-28T00:35:38;93493.19;;;4.73;91.04
45793;BME280;31495;42.740;22.908;2023-02-28T00:36:38;93529.50;;;4.93;91.27
45793;BME280;31495;42.740;22.908;2023-02-28T00:37:41;93488.59;;;4.60;90.57
45793;BME280;31495;42.740;22.908;2023-02-28T00:38:40;93551.66;;;4.86;90.56
45793;BME280;31495;42.740;22.908;2023-02-28T00:39:40;93552.44;;;4.87;90.77
45793;BME280;31495;42.740;22.908;2023-02-28T00:40:40;93531.16;;;4.78;91.06
45793;BME280;31495;42.740;22.908;2023-02-28T00:41:39;93508.13;;;4.62;90.83
45793;BME280;31495;42.740;22.908;2023-02-28T00:42:39;93529.25;;;4.72;90.56
45793;BME280;31495;42.740;22.908;2023-02-28T00:43:39;93542.75;;;4.66;90.29
45793;BME280;31495;42.740;22.908;2023-02-28T00:44:38;93538.88;;;4.62;90.13
45793;BME280;31495;42.740;22.908;2023-02-28T00:45:38;93501.44;;;4.36;90.26
45793;BME280;31495;42.740;22.908;2023-02-28T00:46:37;93499.22;;;4.24;89.65
45793;BME280;31495;42.740;22.908;2023-02-28T00:47:37;93542.25;;;4.54;89.87
45793;BME280;31495;42.740;22.908;2023-02-28T00:48:36;93512.22;;;4.31;89.62
45793;BME280;31495;42.740;22.908;2023-02-28T00:49:36;93553.00;;;4.49;90.11
45793;BME280;31495;42.740;22.908;2023-02-28T00:50:35;93542.25;;;4.46;90.27
45793;BME280;31495;42.740;22.908;2023-02-28T00:51:35;93521.31;;;4.26;90.29
45793;BME280;31495;42.740;22.908;2023-02-28T00:52:34;93516.19;;;4.17;90.39
45793;BME280;31495;42.740;22.908;2023-02-28T00:53:34;93543.25;;;4.28;90.38
45793;BME280;31495;42.740;22.908;2023-02-28T00:54:33;93550.94;;;4.28;90.92
45793;BME280;31495;42.740;22.908;2023-02-28T00:55:33;93513.50;;;4.11;90.99
45793;BME280;31495;42.740;22.908;2023-02-28T00:56:32;93519.09;;;4.14;90.94
45793;BME280;31495;42.740;22.908;2023-02-28T00:57:31;93540.38;;;4.39;90.98
45793;BME280;31495;42.740;22.908;2023-02-28T00:58:31;93529.94;;;4.33;91.19
45793;BME280;31495;42.740;22.908;2023-02-28T00:59:30;93514.75;;;4.31;91.08
45793;BME280;31495;42.740;22.908;2023-02-28T01:00:30;93552.66;;;4.60;90.83
45793;BME280;31495;42.740;22.908;2023-02-28T01:01:29;93550.59;;;4.64;90.89
45793;BME280;31495;42.740;22.908;2023-02-28T01:02:29;93533.63;;;4.47;91.12
45793;BME280;31495;42.740;22.908;2023-02-28T01:03:28;93541.31;;;4.55;91.13
45793;BME280;31495;42.740;22.908;2023-02-28T01:04:28;93523.38;;;4.55;90.69
45793;BME280;31495;42.740;22.908;2023-02-28T01:05:27;93543.03;;;4.71;90.54
45793;BME280;31495;42.740;22.908;2023-02-28T01:06:26;93531.50;;;4.67;90.73
45793;BME280;31495;42.740;22.908;2023-02-28T01:07:26;93534.06;;;4.67;90.82
45793;BME280;31495;42.740;22.908;2023-02-28T01:08:25;93450.91;;;4.21;91.18
45793;BME280;31495;42.740;22.908;2023-02-28T01:09:26;93516.78;;;4.60;91.41
45793;BME280;31495;42.740;22.908;2023-02-28T01:10:27;93475.03;;;4.35;91.52
45793;BME280;31495;42.740;22.908;2023-02-28T01:11:30;93529.56;;;4.77;91.65
45793;BME280;31495;42.740;22.908;2023-02-28T01:12:30;93537.91;;;4.79;90.93
45793;BME280;31495;42.740;22.908;2023-02-28T01:13:29;93539.47;;;4.80;91.12
45793;BME280;31495;42.740;22.908;2023-02-28T01:14:29;93523.03;;;4.66;91.35
45793;BME280;31495;42.740;22.908;2023-02-28T01:15:28;93514.53;;;4.66;90.86
45793;BME280;31495;42.740;22.908;2023-02-28T01:16:28;93507.03;;;4.64;90.75
45793;BME280;31495;42.740;22.908;2023-02-28T01:17:27;93500.13;;;4.56;90.63
45793;BME280;31495;42.740;22.908;2023-02-28T01:18:27;93490.53;;;4.50;90.46
45793;BME280;31495;42.740;22.908;2023-02-28T01:19:27;93492.63;;;4.55;90.72
45793;BME280;31495;42.740;22.908;2023-02-28T01:20:27;93458.19;;;4.41;90.50
45793;BME280;31495;42.740;22.908;2023-02-28T01:21:27;93531.94;;;4.87;90.53
45793;BME280;31495;42.740;22.908;2023-02-28T01:22:27;93522.66;;;4.86;90.35
45793;BME280;31495;42.740;22.908;2023-02-28T01:23:26;93505.69;;;4.76;89.49
45793;BME280;31495;42.740;22.908;2023-02-28T01:24:26;93543.00;;;4.87;89.68
45793;BME280;31495;42.740;22.908;2023-02-28T01:25:25;93537.88;;;4.87;89.76
45793;BME280;31495;42.740;22.908;2023-02-28T01:26:25;93496.75;;;4.64;89.86
45793;BME280;31495;42.740;22.908;2023-02-28T01:27:24;93535.28;;;4.95;90.01
45793;BME280;31495;42.740;22.908;2023-02-28T01:28:25;93545.03;;;4.92;89.56
45793;BME280;31495;42.740;22.908;2023-02-28T01:29:25;93537.88;;;4.87;89.65
45793;BME280;31495;42.740;22.908;2023-02-28T01:30:24;93520.91;;;4.78;90.26
45793;BME280;31495;42.740;22.908;2023-02-28T01:31:24;93536.88;;;4.88;90.20
45793;BME280;31495;42.740;22.908;2023-02-28T01:32:23;93532.25;;;4.84;90.30
45793;BME280;31495;42.740;22.908;2023-02-28T01:33:23;93522.50;;;4.87;90.35
45793;BME280;31495;42.740;22.908;2023-02-28T01:34:22;93504.06;;;4.75;90.32
45793;BME280;31495;42.740;22.908;2023-02-28T01:35:21;93492.41;;;4.73;89.64
45793;BME280;31495;42.740;22.908;2023-02-28T01:36:23;93524.88;;;4.97;89.81
45793;BME280;31495;42.740;22.908;2023-02-28T01:37:23;93457.22;;;4.50;89.87
45793;BME280;31495;42.740;22.908;2023-02-28T01:38:22;93500.56;;;4.76;89.94
45793;BME280;31495;42.740;22.908;2023-02-28T01:39:22;93447.13;;;4.49;89.50
45793;BME280;31495;42.740;22.908;2023-02-28T01:40:22;93494.66;;;4.76;88.88
45793;BME280;31495;42.740;22.908;2023-02-28T01:41:30;93529.50;;;4.93;88.37
45793;BME280;31495;42.740;22.908;2023-02-28T01:42:30;93497.88;;;4.62;88.94
45793;BME280;31495;42.740;22.908;2023-02-28T01:43:53;93536.91;;;4.80;89.48
45793;BME280;31495;42.740;22.908;2023-02-28T01:46:20;93533.72;;;4.78;89.23
45793;BME280;31495;42.740;22.908;2023-02-28T01:47:20;93476.47;;;4.46;89.73
45793;BME280;31495;42.740;22.908;2023-02-28T01:48:27;93529.06;;;4.82;89.51
45793;BME280;31495;42.740;22.908;2023-02-28T01:49:29;93494.84;;;4.66;89.12
45793;BME280;31495;42.740;22.908;2023-02-28T01:50:31;93507.16;;;4.71;88.89
45793;BME280;31495;42.740;22.908;2023-02-28T01:51:41;93503.47;;;4.65;88.79
45793;BME280;31495;42.740;22.908;2023-02-28T01:52:46;93530.53;;;4.76;88.86
45793;BME280;31495;42.740;22.908;2023-02-28T01:53:50;93502.22;;;4.61;88.78
45793;BME280;31495;42.740;22.908;2023-02-28T01:54:54;93469.56;;;4.47;88.84
45793;BME280;31495;42.740;22.908;2023-02-28T01:55:54;93508.13;;;4.62;88.93
45793;BME280;31495;42.740;22.908;2023-02-28T01:56:57;93526.81;;;4.78;88.83
45793;BME280;31495;42.740;22.908;2023-02-28T01:58:00;93530.84;;;4.81;88.70
45793;BME280;31495;42.740;22.908;2023-02-28T01:59:01;93443.53;;;4.27;88.51
45793;BME280;31495;42.740;22.908;2023-02-28T02:00:06;93526.81;;;4.87;88.48
45793;BME280;31495;42.740;22.908;2023-02-28T02:01:07;93487.31;;;4.65;88.89
45793;BME280;31495;42.740;22.908;2023-02-28T02:02:06;93502.97;;;4.70;89.19
45793;BME280;31495;42.740;22.908;2023-02-28T02:03:09;93524.06;;;4.88;89.06
45793;BME280;31495;42.740;22.908;2023-02-28T02:04:10;93440.63;;;4.30;89.13
45793;BME280;31495;42.740;22.908;2023-02-28T02:05:24;93503.63;;;4.72;89.37
45793;BME280;31495;42.740;22.908;2023-02-28T02:06:26;93510.31;;;4.81;88.89
45793;BME280;31495;42.740;22.908;2023-02-28T02:07:30;93506.84;;;4.74;88.88
45793;BME280;31495;42.740;22.908;2023-02-28T02:08:32;93490.66;;;4.65;89.00
45793;BME280;31495;42.740;22.908;2023-02-28T02:09:31;93471.66;;;4.51;89.05
45793;BME280;31495;42.740;22.908;2023-02-28T02:10:50;93530.47;;;4.92;88.90
45793;BME280;31495;42.740;22.908;2023-02-28T02:11:55;93488.41;;;4.70;88.87
45793;BME280;31495;42.740;22.908;2023-02-28T02:15:06;93531.09;;;4.94;88.81
45793;BME280;31495;42.740;22.908;2023-02-28T02:16:44;93534.31;;;4.96;88.73
45793;BME280;31495;42.740;22.908;2023-02-28T02:17:49;93524.09;;;4.80;88.97
45793;BME280;31495;42.740;22.908;2023-02-28T02:21:28;93537.72;;;4.89;89.39
45793;BME280;31495;42.740;22.908;2023-02-28T02:23:07;93539.13;;;4.91;89.65
45793;BME280;31495;42.740;22.908;2023-02-28T02:25:25;93535.28;;;4.95;89.60
45793;BME280;31495;42.740;22.908;2023-02-28T02:28:04;93530.16;;;4.95;89.60
45793;BME280;31495;42.740;22.908;2023-02-28T02:30:44;93537.19;;;4.93;88.90
45793;BME280;31495;42.740;22.908;2023-02-28T02:36:25;93539.31;;;4.82;88.65
45793;BME280;31495;42.740;22.908;2023-02-28T02:37:36;93528.28;;;4.81;88.59
45793;BME280;31495;42.740;22.908;2023-02-28T02:38:47;93525.56;;;4.74;88.83
45793;BME280;31495;42.740;22.908;2023-02-28T02:42:24;93497.75;;;4.55;88.89
45793;BME280;31495;42.740;22.908;2023-02-28T02:43:34;93535.97;;;4.81;88.54
45793;BME280;31495;42.740;22.908;2023-02-28T02:44:48;93540.94;;;4.83;88.60
45793;BME280;31495;42.740;22.908;2023-02-28T02:46:04;93536.94;;;4.64;88.12
45793;BME280;31495;42.740;22.908;2023-02-28T02:47:12;93527.03;;;4.52;88.56
45793;BME280;31495;42.740;22.908;2023-02-28T02:48:16;93540.81;;;4.59;88.84
45793;BME280;31495;42.740;22.908;2023-02-28T02:49:30;93501.75;;;4.33;89.05
45793;BME280;31495;42.740;22.908;2023-02-28T02:50:41;93520.97;;;4.45;89.33
45793;BME280;31495;42.740;22.908;2023-02-28T02:51:44;93510.75;;;4.29;89.31
45793;BME280;31495;42.740;22.908;2023-02-28T02:52:48;93514.56;;;4.33;89.16
45793;BME280;31495;42.740;22.908;2023-02-28T02:54:10;93534.72;;;4.52;89.36
45793;BME280;31495;42.740;22.908;2023-02-28T02:55:14;93466.09;;;4.07;89.12
45793;BME280;31495;42.740;22.908;2023-02-28T02:56:19;93508.50;;;4.34;89.39
45793;BME280;31495;42.740;22.908;2023-02-28T02:57:29;93524.34;;;4.46;89.37
45793;BME280;31495;42.740;22.908;2023-02-28T02:58:35;93537.63;;;4.49;89.34
45793;BME280;31495;42.740;22.908;2023-02-28T02:59:41;93543.72;;;4.48;89.65
45793;BME280;31495;42.740;22.908;2023-02-28T03:00:46;93529.47;;;4.46;89.87
45793;BME280;31495;42.740;22.908;2023-02-28T03:01:51;93545.63;;;4.54;89.80
45793;BME280;31495;42.740;22.908;2023-02-28T03:02:54;93544.66;;;4.55;90.06
45793;BME280;31495;42.740;22.908;2023-02-28T03:04:01;93508.50;;;4.34;89.88
45793;BME280;31495;42.740;22.908;2023-02-28T03:05:11;93540.16;;;4.49;90.20
45793;BME280;31495;42.740;22.908;2023-02-28T03:06:14;93545.50;;;4.48;90.28
45793;BME280;31495;42.740;22.908;2023-02-28T03:07:14;93551.09;;;4.51;90.42
45793;BME280;31495;42.740;22.908;2023-02-28T03:08:13;93525.00;;;4.31;90.35
45793;BME280;31495;42.740;22.908;2023-02-28T03:09:14;93528.03;;;4.35;90.41
45793;BME280;31495;42.740;22.908;2023-02-28T03:10:47;93549.00;;;4.47;90.52
45793;BME280;31495;42.740;22.908;2023-02-28T03:11:49;93521.31;;;4.34;90.64
45793;BME280;31495;42.740;22.908;2023-02-28T03:13:09;93525.63;;;4.41;90.01
45793;BME280;31495;42.740;22.908;2023-02-28T03:18:40;93505.97;;;3.93;90.31
45793;BME280;31495;42.740;22.908;2023-02-28T03:20:00;93543.75;;;4.23;90.47
45793;BME280;31495;42.740;22.908;2023-02-28T03:23:42;93554.31;;;4.12;90.28
45793;BME280;31495;42.740;22.908;2023-02-28T03:26:11;93538.94;;;4.04;89.98
45793;BME280;31495;42.740;22.908;2023-02-28T03:28:32;93547.88;;;4.00;89.90
45793;BME280;31495;42.740;22.908;2023-02-28T03:29:39;93571.28;;;4.05;89.88
45793;BME280;31495;42.740;22.908;2023-02-28T03:31:10;93572.53;;;4.09;90.18
45793;BME280;31495;42.740;22.908;2023-02-28T03:32:25;93549.50;;;4.01;89.87
45793;BME280;31495;42.740;22.908;2023-02-28T03:33:32;93541.81;;;3.93;89.67
45793;BME280;31495;42.740;22.908;2023-02-28T03:34:37;93513.00;;;3.66;89.70
45793;BME280;31495;42.740;22.908;2023-02-28T03:35:41;93551.56;;;3.89;89.51
45793;BME280;31495;42.740;22.908;2023-02-28T03:36:47;93539.53;;;3.73;89.73
45793;BME280;31495;42.740;22.908;2023-02-28T03:37:51;93566.94;;;3.89;89.76
45793;BME280;31495;42.740;22.908;2023-02-28T03:38:58;93464.97;;;3.27;89.70
45793;BME280;31495;42.740;22.908;2023-02-28T03:40:08;93575.72;;;4.03;89.28
45793;BME280;31495;42.740;22.908;2023-02-28T03:41:30;93574.63;;;4.05;88.96
45793;BME280;31495;42.740;22.908;2023-02-28T03:42:34;93574.28;;;3.92;89.21
45793;BME280;31495;42.740;22.908;2023-02-28T03:43:38;93546.28;;;3.74;89.20
45793;BME280;31495;42.740;22.908;2023-02-28T03:44:43;93577.66;;;3.93;89.27
45793;BME280;31495;42.740;22.908;2023-02-28T03:45:45;93580.53;;;3.98;89.35
45793;BME280;31495;42.740;22.908;2023-02-28T03:46:58;93566.28;;;3.87;89.14
45793;BME280;31495;42.740;22.908;2023-02-28T03:48:03;93561.16;;;3.79;89.16
45793;BME280;31495;42.740;22.908;2023-02-28T03:49:17;93552.50;;;3.72;89.30
45793;BME280;31495;42.740;22.908;2023-02-28T03:50:27;93554.25;;;3.71;89.41
45793;BME280;31495;42.740;22.908;2023-02-28T03:51:30;93583.41;;;3.86;89.26
45793;BME280;31495;42.740;22.908;2023-02-28T03:52:34;93565.78;;;3.75;89.20
45793;BME280;31495;42.740;22.908;2023-02-28T03:53:39;93559.38;;;3.71;89.09
45793;BME280;31495;42.740;22.908;2023-02-28T03:54:48;93525.41;;;3.36;88.99
45793;BME280;31495;42.740;22.908;2023-02-28T03:55:55;93579.38;;;3.76;89.01
45793;BME280;31495;42.740;22.908;2023-02-28T03:58:25;93588.63;;;3.68;89.08
45793;BME280;31495;42.740;22.908;2023-02-28T03:59:34;93553.09;;;3.49;89.23
45793;BME280;31495;42.740;22.908;2023-02-28T04:00:38;93568.59;;;3.56;89.21
45793;BME280;31495;42.740;22.908;2023-02-28T04:01:42;93558.69;;;3.44;89.18
45793;BME280;31495;42.740;22.908;2023-02-28T04:02:42;93586.88;;;3.61;89.23
45793;BME280;31495;42.740;22.908;2023-02-28T04:03:42;93583.97;;;3.56;89.14
45793;BME280;31495;42.740;22.908;2023-02-28T04:04:41;93568.25;;;3.42;89.07
45793;BME280;31495;42.740;22.908;2023-02-28T04:05:52;93554.16;;;3.30;89.11
45793;BME280;31495;42.740;22.908;2023-02-28T04:07:01;93583.78;;;3.49;89.32
45793;BME280;31495;42.740;22.908;2023-02-28T04:08:06;93585.41;;;3.50;89.49
45793;BME280;31495;42.740;22.908;2023-02-28T04:09:07;93589.41;;;3.53;89.56
45793;BME280;31495;42.740;22.908;2023-02-28T04:10:08;93585.22;;;3.43;89.83
45793;BME280;31495;42.740;22.908;2023-02-28T04:12:17;93562.81;;;3.37;89.84
45793;BME280;31495;42.740;22.908;2023-02-28T04:13:16;93544.06;;;3.20;90.05
45793;BME280;31495;42.740;22.908;2023-02-28T04:14:15;93589.41;;;3.53;90.40
45793;BME280;31495;42.740;22.908;2023-02-28T04:15:14;93560.41;;;3.36;90.41
45793;BME280;31495;42.740;22.908;2023-02-28T04:16:14;93595.97;;;3.63;90.41
45793;BME280;31495;42.740;22.908;2023-02-28T04:17:14;93529.34;;;3.22;90.05
45793;BME280;31495;42.740;22.908;2023-02-28T04:18:14;93551.47;;;3.40;90.00
45793;BME280;31495;42.740;22.908;2023-02-28T04:19:14;93580.94;;;3.60;90.20
45793;BME280;31495;42.740;22.908;2023-02-28T04:20:13;93601.59;;;3.75;90.35
45793;BME280;31495;42.740;22.908;2023-02-28T04:21:13;93570.84;;;3.59;90.02
45793;BME280;31495;42.740;22.908;2023-02-28T04:22:13;93584.16;;;3.62;90.64
45793;BME280;31495;42.740;22.908;2023-02-28T04:23:12;93555.94;;;3.38;91.23
45793;BME280;31495;42.740;22.908;2023-02-28T04:24:14;93549.88;;;3.39;91.52
45793;BME280;31495;42.740;22.908;2023-02-28T04:25:14;93580.31;;;3.58;91.63
45793;BME280;31495;42.740;22.908;2023-02-28T04:26:13;93583.47;;;3.52;91.66
45793;BME280;31495;42.740;22.908;2023-02-28T04:27:12;93575.94;;;3.50;91.93
45793;BME280;31495;42.740;22.908;2023-02-28T04:28:14;93593.59;;;3.70;91.96
45793;BME280;31495;42.740;22.908;2023-02-28T04:29:22;93593.28;;;3.65;92.01
45793;BME280;31495;42.740;22.908;2023-02-28T04:30:22;93597.78;;;3.71;92.11
45793;BME280;31495;42.740;22.908;2023-02-28T04:31:21;93585.44;;;3.66;91.92
45793;BME280;31495;42.740;22.908;2023-02-28T04:32:20;93577.13;;;3.64;91.83
45793;BME280;31495;42.740;22.908;2023-02-28T04:33:20;93553.38;;;3.46;91.51
45793;BME280;31495;42.740;22.908;2023-02-28T04:34:20;93575.34;;;3.65;91.87
45793;BME280;31495;42.740;22.908;2023-02-28T04:35:20;93571.03;;;3.65;91.88
45793;BME280;31495;42.740;22.908;2023-02-28T04:36:19;93575.22;;;3.75;91.61
45793;BME280;31495;42.740;22.908;2023-02-28T04:37:20;93579.25;;;3.77;91.28
45793;BME280;31495;42.740;22.908;2023-02-28T04:38:19;93603.22;;;3.84;91.35
45793;BME280;31495;42.740;22.908;2023-02-28T04:39:19;93554.53;;;3.52;91.13
45793;BME280;31495;42.740;22.908;2023-02-28T04:40:19;93564.81;;;3.68;91.02
45793;BME280;31495;42.740;22.908;2023-02-28T04:41:19;93608.53;;;3.91;91.09
45793;BME280;31495;42.740;22.908;2023-02-28T04:42:19;93585.78;;;3.80;91.11
45793;BME280;31495;42.740;22.908;2023-02-28T04:43:18;93608.84;;;3.96;90.97
45793;BME280;31495;42.740;22.908;2023-02-28T04:44:18;93578.56;;;3.75;90.87
45793;BME280;31495;42.740;22.908;2023-02-28T04:45:17;93602.00;;;3.97;90.69
45793;BME280;31495;42.740;22.908;2023-02-28T04:46:17;93607.28;;;3.95;90.91
45793;BME280;31495;42.740;22.908;2023-02-28T04:47:17;93610.16;;;4.00;90.82
45793;BME280;31495;42.740;22.908;2023-02-28T04:48:17;93583.22;;;3.80;90.77
45793;BME280;31495;42.740;22.908;2023-02-28T04:49:16;93608.38;;;4.01;91.18
45793;BME280;31495;42.740;22.908;2023-02-28T04:50:15;93597.50;;;3.99;91.27
45793;BME280;31495;42.740;22.908;2023-02-28T04:51:17;93602.78;;;3.97;90.98
45793;BME280;31495;42.740;22.908;2023-02-28T04:52:16;93612.56;;;4.02;90.30
45793;BME280;31495;42.740;22.908;2023-02-28T04:53:16;93614.13;;;3.95;90.52
45793;BME280;31495;42.740;22.908;2023-02-28T04:54:15;93607.41;;;3.94;90.89
45793;BME280;31495;42.740;22.908;2023-02-28T04:55:15;93575.53;;;3.80;91.25
45793;BME280;31495;42.740;22.908;2023-02-28T04:56:16;93606.94;;;3.98;91.18
45793;BME280;31495;42.740;22.908;2023-02-28T04:57:16;93569.47;;;3.81;91.03
45793;BME280;31495;42.740;22.908;2023-02-28T04:58:15;93611.56;;;4.03;91.02
45793;BME280;31495;42.740;22.908;2023-02-28T04:59:15;93567.53;;;3.75;91.20
45793;BME280;31495;42.740;22.908;2023-02-28T05:00:14;93613.81;;;3.98;90.75
45793;BME280;31495;42.740;22.908;2023-02-28T05:02:15;93569.91;;;3.60;91.34
45793;BME280;31495;42.740;22.908;2023-02-28T05:03:15;93573.75;;;3.64;91.35
45793;BME280;31495;42.740;22.908;2023-02-28T05:04:15;93608.53;;;3.91;91.47
45793;BME280;31495;42.740;22.908;2023-02-28T05:05:15;93569.47;;;3.73;90.89
45793;BME280;31495;42.740;22.908;2023-02-28T05:06:17;93548.50;;;3.61;90.55
45793;BME280;31495;42.740;22.908;2023-02-28T05:07:17;93595.09;;;3.89;90.90
45793;BME280;31495;42.740;22.908;2023-02-28T05:08:16;93612.03;;;3.98;91.10
45793;BME280;31495;42.740;22.908;2023-02-28T05:09:16;93562.53;;;3.57;91.41
45793;BME280;31495;42.740;22.908;2023-02-28T05:10:15;93551.19;;;3.51;91.46
45793;BME280;31495;42.740;22.908;2023-02-28T05:11:32;93576.84;;;3.84;91.40
45793;BME280;31495;42.740;22.908;2023-02-28T05:12:34;93601.47;;;3.93;91.46
45793;BME280;31495;42.740;22.908;2023-02-28T05:13:33;93620.56;;;4.07;91.44
45793;BME280;31495;42.740;22.908;2023-02-28T05:14:34;93563.72;;;3.79;90.74
45793;BME280;31495;42.740;22.908;2023-02-28T05:15:33;93606.94;;;4.07;90.35
45793;BME280;31495;42.740;22.908;2023-02-28T05:16:33;93617.19;;;4.15;89.82
45793;BME280;31495;42.740;22.908;2023-02-28T05:17:32;93617.19;;;4.07;90.00
45793;BME280;31495;42.740;22.908;2023-02-28T05:18:31;93623.59;;;4.11;90.62
45793;BME280;31495;42.740;22.908;2023-02-28T05:19:31;93601.81;;;4.07;90.43
45793;BME280;31495;42.740;22.908;2023-02-28T05:20:30;93610.31;;;4.07;90.67
45793;BME280;31495;42.740;22.908;2023-02-28T05:21:32;93593.97;;;4.00;90.52
45793;BME280;31495;42.740;22.908;2023-02-28T05:22:32;93624.25;;;4.13;90.58
45793;BME280;31495;42.740;22.908;2023-02-28T05:23:32;93626.16;;;4.11;90.69
45793;BME280;31495;42.740;22.908;2023-02-28T05:24:32;93604.88;;;4.02;90.87
45793;BME280;31495;42.740;22.908;2023-02-28T05:25:31;93581.50;;;3.97;90.66
45793;BME280;31495;42.740;22.908;2023-02-28T05:26:34;93624.72;;;4.24;90.63
45793;BME280;31495;42.740;22.908;2023-02-28T05:27:34;93619.59;;;4.24;90.66
45793;BME280;31495;42.740;22.908;2023-02-28T05:28:33;93570.75;;;3.93;90.81
45793;BME280;31495;42.740;22.908;2023-02-28T05:29:33;93608.72;;;4.22;90.55
45793;BME280;31495;42.740;22.908;2023-02-28T05:30:33;93616.56;;;4.29;90.28
45793;BME280;31495;42.740;22.908;2023-02-28T05:31:33;93586.31;;;4.16;90.16
45793;BME280;31495;42.740;22.908;2023-02-28T05:32:32;93592.72;;;4.20;89.82
45793;BME280;31495;42.740;22.908;2023-02-28T05:33:32;93609.03;;;4.36;89.64
45793;BME280;31495;42.740;22.908;2023-02-28T05:34:32;93586.16;;;4.18;89.31
45793;BME280;31495;42.740;22.908;2023-02-28T05:35:31;93604.38;;;4.23;89.42
45793;BME280;31495;42.740;22.908;2023-02-28T05:36:30;93628.75;;;4.44;89.59
45793;BME280;31495;42.740;22.908;2023-02-28T05:37:30;93597.22;;;4.27;89.29
45793;BME280;31495;42.740;22.908;2023-02-28T05:38:29;93636.13;;;4.55;88.94
45793;BME280;31495;42.740;22.908;2023-02-28T05:39:29;93631.00;;;4.55;88.79
45793;BME280;31495;42.740;22.908;2023-02-28T05:40:29;93590.78;;;4.31;89.01
45793;BME280;31495;42.740;22.908;2023-02-28T05:41:28;93606.00;;;4.40;89.13
45793;BME280;31495;42.740;22.908;2023-02-28T05:42:28;93640.47;;;4.63;89.21
45793;BME280;31495;42.740;22.908;2023-02-28T05:43:27;93641.09;;;4.65;89.33
45793;BME280;31495;42.740;22.908;2023-02-28T05:44:26;93597.53;;;4.40;89.28
45793;BME280;31495;42.740;22.908;2023-02-28T05:45:26;93639.78;;;4.69;89.29
45793;BME280;31495;42.740;22.908;2023-02-28T05:46:26;93601.34;;;4.44;89.42
45793;BME280;31495;42.740;22.908;2023-02-28T05:47:25;93643.66;;;4.73;89.33
45793;BME280;31495;42.740;22.908;2023-02-28T05:48:25;93640.75;;;4.76;89.12
45793;BME280;31495;42.740;22.908;2023-02-28T05:49:25;93647.47;;;4.85;88.67
45793;BME280;31495;42.740;22.908;2023-02-28T05:50:24;93604.22;;;4.57;88.73
45793;BME280;31495;42.740;22.908;2023-02-28T05:51:23;93637.06;;;4.78;88.81
45793;BME280;31495;42.740;22.908;2023-02-28T05:52:22;93588.53;;;4.52;89.01
45793;BME280;31495;42.740;22.908;2023-02-28T05:53:22;93567.25;;;4.35;88.84
45793;BME280;31495;42.740;22.908;2023-02-28T05:54:22;93604.22;;;4.57;88.92
45793;BME280;31495;42.740;22.908;2023-02-28T05:55:21;93603.59;;;4.64;89.14
45793;BME280;31495;42.740;22.908;2023-02-28T05:56:21;93620.56;;;4.73;89.14
45793;BME280;31495;42.740;22.908;2023-02-28T05:57:21;93647.00;;;4.90;89.03
45793;BME280;31495;42.740;22.908;2023-02-28T05:58:21;93623.59;;;4.76;88.84
45793;BME280;31495;42.740;22.908;2023-02-28T05:59:21;93644.56;;;4.96;88.71
45793;BME280;31495;42.740;22.908;2023-02-28T06:00:20;93610.31;;;4.73;88.68
45793;BME280;31495;42.740;22.908;2023-02-28T06:02:39;93623.44;;;4.86;88.47